sensor_id;sensor_type;location;lat;lon;timestamp;P1;durP1;ratioP1;P2;durP2;ratioP2
23260;SDS011;11799;47.740;-3.390;2023-06-26T00:02:18;9.68;;;2.90;;
23260;SDS011;11799;47.740;-3.390;2023-06-26T00:04:43;8.38;;;2.30;;
23260;SDS011;11799;47.740;-3.390;2023-06-26T00:07:10;9.95;;;2.30;;
23260;SDS011;11799;47.740;-3.390;2023-06-26T00:09:36;9.60;;;2.47;;
23260;SDS011;11799;47.740;-3.390;2023-06-26T00:12:01;8.18;;;2.30;;
23260;SDS011;11799;47.740;-3.390;2023-06-26T00:14:27;7.95;;;2.45;;
23260;SDS011;11799;47.740;-3.390;2023-06-26T00:16:52;14.65;;;2.60;;
23260;SDS011;11799;47.740;-3.390;2023-06-26T00:19:18;12.13;;;2.40;;
23260;SDS011;11799;47.740;-3.390;2023-06-26T00:21:44;6.07;;;2.03;;
23260;SDS011;11799;47.740;-3.390;2023-06-26T00:24:15;4.05;;;2.30;;
23260;SDS011;11799;47.740;-3.390;2023-06-26T00:26:41;7.20;;;2.38;;
23260;SDS011;11799;47.740;-3.390;2023-06-26T00:29:07;6.28;;;2.45;;
23260;SDS011;11799;47.740;-3.390;2023-06-26T00:31:33;9.45;;;2.40;;
23260;SDS011;11799;47.740;-3.390;2023-06-26T00:34:00;9.25;;;2.40;;
23260;SDS011;11799;47.740;-3.390;2023-06-26T00:36:27;8.32;;;2.53;;
23260;SDS011;11799;47.740;-3.390;2023-06-26T00:38:52;9.88;;;2.47;;
23260;SDS011;11799;47.740;-3.390;2023-06-26T00:41:18;9.98;;;2.33;;
23260;SDS011;11799;47.740;-3.390;2023-06-26T00:43:44;9.63;;;2.30;;
23260;SDS011;11799;47.740;-3.390;2023-06-26T00:46:10;6.90;;;2.97;;
23260;SDS011;11799;47.740;-3.390;2023-06-26T00:48:38;7.82;;;2.30;;
23260;SDS011;11799;47.740;-3.390;2023-06-26T00:51:06;7.00;;;2.63;;
23260;SDS011;11799;47.740;-3.390;2023-06-26T00:53:32;7.75;;;2.55;;
23260;SDS011;11799;47.740;-3.390;2023-06-26T00:55:58;6.85;;;2.28;;
23260;SDS011;11799;47.740;-3.390;2023-06-26T00:58:25;9.25;;;2.67;;
23260;SDS011;11799;47.740;-3.390;2023-06-26T01:00:51;6.43;;;2.30;;
23260;SDS011;11799;47.740;-3.390;2023-06-26T01:03:18;10.63;;;2.90;;
23260;SDS011;11799;47.740;-3.390;2023-06-26T01:05:48;5.82;;;2.47;;
23260;SDS011;11799;47.740;-3.390;2023-06-26T01:08:16;10.05;;;2.50;;
23260;SDS011;11799;47.740;-3.390;2023-06-26T01:10:43;8.90;;;2.45;;
23260;SDS011;11799;47.740;-3.390;2023-06-26T01:13:10;8.40;;;3.83;;
23260;SDS011;11799;47.740;-3.390;2023-06-26T01:15:38;9.45;;;2.78;;
23260;SDS011;11799;47.740;-3.390;2023-06-26T01:18:04;9.32;;;2.80;;
23260;SDS011;11799;47.740;-3.390;2023-06-26T01:20:34;7.50;;;2.50;;
23260;SDS011;11799;47.740;-3.390;2023-06-26T01:28:38;12.40;;;3.08;;
23260;SDS011;11799;47.740;-3.390;2023-06-26T01:31:06;6.93;;;2.90;;
23260;SDS011;11799;47.740;-3.390;2023-06-26T01:33:33;9.93;;;2.60;;
23260;SDS011;11799;47.740;-3.390;2023-06-26T01:35:59;9.35;;;2.97;;
23260;SDS011;11799;47.740;-3.390;2023-06-26T01:38:26;6.63;;;2.90;;
23260;SDS011;11799;47.740;-3.390;2023-06-26T01:40:52;8.95;;;2.58;;
23260;SDS011;11799;47.740;-3.390;2023-06-26T01:46:15;6.85;;;2.65;;
23260;SDS011;11799;47.740;-3.390;2023-06-26T01:48:51;4.47;;;2.55;;
23260;SDS011;11799;47.740;-3.390;2023-06-26T01:51:20;10.18;;;2.97;;
23260;SDS011;11799;47.740;-3.390;2023-06-26T01:53:52;7.47;;;2.78;;
23260;SDS011;11799;47.740;-3.390;2023-06-26T01:56:22;8.00;;;2.85;;
23260;SDS011;11799;47.740;-3.390;2023-06-26T01:58:50;6.82;;;2.50;;
23260;SDS011;11799;47.740;-3.390;2023-06-26T02:01:20;5.72;;;2.55;;
23260;SDS011;11799;47.740;-3.390;2023-06-26T02:03:47;7.18;;;2.80;;
23260;SDS011;11799;47.740;-3.390;2023-06-26T02:06:13;9.07;;;3.00;;
23260;SDS011;11799;47.740;-3.390;2023-06-26T02:08:39;8.68;;;2.63;;
23260;SDS011;11799;47.740;-3.390;2023-06-26T02:11:05;7.07;;;2.60;;
23260;SDS011;11799;47.740;-3.390;2023-06-26T02:13:31;9.73;;;2.83;;
23260;SDS011;11799;47.740;-3.390;2023-06-26T02:15:57;4.35;;;2.30;;
23260;SDS011;11799;47.740;-3.390;2023-06-26T02:18:23;6.15;;;2.95;;
23260;SDS011;11799;47.740;-3.390;2023-06-26T02:20:49;7.57;;;2.63;;
23260;SDS011;11799;47.740;-3.390;2023-06-26T02:23:15;6.88;;;3.05;;
23260;SDS011;11799;47.740;-3.390;2023-06-26T02:25:41;5.45;;;2.55;;
23260;SDS011;11799;47.740;-3.390;2023-06-26T02:28:08;8.18;;;2.70;;
23260;SDS011;11799;47.740;-3.390;2023-06-26T02:30:35;8.45;;;2.70;;
23260;SDS011;11799;47.740;-3.390;2023-06-26T02:33:00;7.80;;;2.60;;
23260;SDS011;11799;47.740;-3.390;2023-06-26T02:35:26;6.85;;;2.78;;
23260;SDS011;11799;47.740;-3.390;2023-06-26T02:37:51;7.93;;;2.58;;
23260;SDS011;11799;47.740;-3.390;2023-06-26T02:40:17;8.93;;;2.67;;
23260;SDS011;11799;47.740;-3.390;2023-06-26T02:42:42;9.18;;;2.45;;
23260;SDS011;11799;47.740;-3.390;2023-06-26T02:45:08;8.57;;;3.00;;
23260;SDS011;11799;47.740;-3.390;2023-06-26T02:47:34;13.80;;;3.17;;
23260;SDS011;11799;47.740;-3.390;2023-06-26T02:50:00;6.18;;;2.30;;
23260;SDS011;11799;47.740;-3.390;2023-06-26T02:52:29;6.55;;;2.65;;
23260;SDS011;11799;47.740;-3.390;2023-06-26T02:54:55;9.48;;;3.22;;
23260;SDS011;11799;47.740;-3.390;2023-06-26T02:57:21;8.65;;;2.55;;
23260;SDS011;11799;47.740;-3.390;2023-06-26T02:59:46;7.22;;;2.33;;
23260;SDS011;11799;47.740;-3.390;2023-06-26T03:02:12;8.65;;;2.58;;
23260;SDS011;11799;47.740;-3.390;2023-06-26T03:04:44;5.22;;;2.42;;
23260;SDS011;11799;47.740;-3.390;2023-06-26T03:07:11;6.55;;;2.60;;
23260;SDS011;11799;47.740;-3.390;2023-06-26T03:09:38;7.50;;;2.50;;
23260;SDS011;11799;47.740;-3.390;2023-06-26T03:12:04;5.90;;;2.72;;
23260;SDS011;11799;47.740;-3.390;2023-06-26T03:14:32;8.43;;;2.40;;
23260;SDS011;11799;47.740;-3.390;2023-06-26T03:16:57;7.03;;;2.72;;
23260;SDS011;11799;47.740;-3.390;2023-06-26T03:19:25;8.43;;;2.55;;
23260;SDS011;11799;47.740;-3.390;2023-06-26T03:22:29;7.15;;;2.65;;
23260;SDS011;11799;47.740;-3.390;2023-06-26T03:24:54;5.07;;;2.60;;
23260;SDS011;11799;47.740;-3.390;2023-06-26T03:27:20;11.05;;;2.90;;
23260;SDS011;11799;47.740;-3.390;2023-06-26T03:29:47;7.45;;;3.00;;
23260;SDS011;11799;47.740;-3.390;2023-06-26T03:32:13;7.97;;;2.75;;
23260;SDS011;11799;47.740;-3.390;2023-06-26T03:34:39;4.43;;;2.50;;
23260;SDS011;11799;47.740;-3.390;2023-06-26T03:37:05;10.07;;;2.60;;
23260;SDS011;11799;47.740;-3.390;2023-06-26T03:39:31;7.78;;;2.45;;
23260;SDS011;11799;47.740;-3.390;2023-06-26T03:41:56;5.53;;;2.47;;
23260;SDS011;11799;47.740;-3.390;2023-06-26T03:44:25;5.97;;;2.40;;
23260;SDS011;11799;47.740;-3.390;2023-06-26T03:46:51;7.53;;;3.00;;
23260;SDS011;11799;47.740;-3.390;2023-06-26T03:49:17;7.65;;;3.30;;
23260;SDS011;11799;47.740;-3.390;2023-06-26T03:51:43;7.60;;;2.58;;
23260;SDS011;11799;47.740;-3.390;2023-06-26T03:54:09;6.75;;;2.13;;
23260;SDS011;11799;47.740;-3.390;2023-06-26T03:56:34;5.53;;;2.38;;
23260;SDS011;11799;47.740;-3.390;2023-06-26T03:59:00;8.40;;;2.65;;
23260;SDS011;11799;47.740;-3.390;2023-06-26T04:01:26;5.65;;;2.55;;
23260;SDS011;11799;47.740;-3.390;2023-06-26T04:03:51;7.05;;;2.40;;
23260;SDS011;11799;47.740;-3.390;2023-06-26T04:06:17;9.70;;;2.45;;
23260;SDS011;11799;47.740;-3.390;2023-06-26T04:08:42;5.90;;;2.58;;
23260;SDS011;11799;47.740;-3.390;2023-06-26T04:11:08;5.13;;;2.35;;
23260;SDS011;11799;47.740;-3.390;2023-06-26T04:13:33;6.55;;;2.53;;
23260;SDS011;11799;47.740;-3.390;2023-06-26T04:15:59;8.68;;;2.88;;
23260;SDS011;11799;47.740;-3.390;2023-06-26T04:18:24;11.93;;;2.55;;
23260;SDS011;11799;47.740;-3.390;2023-06-26T04:21:03;5.10;;;2.50;;
23260;SDS011;11799;47.740;-3.390;2023-06-26T04:23:32;5.25;;;2.25;;
23260;SDS011;11799;47.740;-3.390;2023-06-26T04:25:58;8.10;;;3.08;;
23260;SDS011;11799;47.740;-3.390;2023-06-26T04:28:24;6.38;;;2.38;;
23260;SDS011;11799;47.740;-3.390;2023-06-26T04:30:49;9.30;;;2.53;;
23260;SDS011;11799;47.740;-3.390;2023-06-26T04:33:15;10.25;;;2.78;;
23260;SDS011;11799;47.740;-3.390;2023-06-26T04:35:41;6.43;;;2.28;;
23260;SDS011;11799;47.740;-3.390;2023-06-26T04:38:06;5.93;;;2.50;;
23260;SDS011;11799;47.740;-3.390;2023-06-26T04:40:32;8.57;;;2.60;;
23260;SDS011;11799;47.740;-3.390;2023-06-26T04:42:57;5.32;;;2.40;;
23260;SDS011;11799;47.740;-3.390;2023-06-26T04:45:23;8.35;;;2.70;;
23260;SDS011;11799;47.740;-3.390;2023-06-26T04:47:48;7.82;;;2.75;;
23260;SDS011;11799;47.740;-3.390;2023-06-26T04:50:14;16.42;;;3.28;;
23260;SDS011;11799;47.740;-3.390;2023-06-26T04:52:39;10.55;;;2.75;;
23260;SDS011;11799;47.740;-3.390;2023-06-26T04:55:05;8.52;;;2.70;;
23260;SDS011;11799;47.740;-3.390;2023-06-26T04:57:31;4.05;;;1.88;;
23260;SDS011;11799;47.740;-3.390;2023-06-26T04:59:56;10.60;;;2.95;;
23260;SDS011;11799;47.740;-3.390;2023-06-26T05:02:22;7.75;;;2.75;;
23260;SDS011;11799;47.740;-3.390;2023-06-26T05:04:47;5.60;;;2.45;;
23260;SDS011;11799;47.740;-3.390;2023-06-26T05:07:13;8.45;;;2.60;;
23260;SDS011;11799;47.740;-3.390;2023-06-26T05:09:39;3.70;;;2.20;;
23260;SDS011;11799;47.740;-3.390;2023-06-26T05:12:04;7.78;;;2.40;;
23260;SDS011;11799;47.740;-3.390;2023-06-26T05:14:30;7.50;;;2.78;;
23260;SDS011;11799;47.740;-3.390;2023-06-26T05:16:56;5.93;;;2.10;;
23260;SDS011;11799;47.740;-3.390;2023-06-26T05:19:21;10.85;;;2.95;;
23260;SDS011;11799;47.740;-3.390;2023-06-26T05:21:47;9.27;;;2.78;;
23260;SDS011;11799;47.740;-3.390;2023-06-26T05:24:13;8.82;;;2.55;;
23260;SDS011;11799;47.740;-3.390;2023-06-26T05:26:41;7.18;;;2.40;;
23260;SDS011;11799;47.740;-3.390;2023-06-26T05:29:06;9.57;;;2.40;;
23260;SDS011;11799;47.740;-3.390;2023-06-26T05:31:32;7.00;;;2.47;;
23260;SDS011;11799;47.740;-3.390;2023-06-26T05:33:59;5.88;;;2.30;;
23260;SDS011;11799;47.740;-3.390;2023-06-26T05:36:27;7.10;;;2.42;;
23260;SDS011;11799;47.740;-3.390;2023-06-26T05:38:54;5.38;;;2.22;;
23260;SDS011;11799;47.740;-3.390;2023-06-26T05:41:21;7.65;;;2.30;;
23260;SDS011;11799;47.740;-3.390;2023-06-26T05:43:47;6.30;;;2.17;;
23260;SDS011;11799;47.740;-3.390;2023-06-26T05:46:13;7.70;;;2.30;;
23260;SDS011;11799;47.740;-3.390;2023-06-26T05:48:38;8.25;;;2.25;;
23260;SDS011;11799;47.740;-3.390;2023-06-26T05:51:04;6.05;;;2.45;;
23260;SDS011;11799;47.740;-3.390;2023-06-26T05:53:30;5.32;;;2.13;;
23260;SDS011;11799;47.740;-3.390;2023-06-26T05:55:56;7.32;;;2.17;;
23260;SDS011;11799;47.740;-3.390;2023-06-26T05:58:23;10.98;;;2.60;;
23260;SDS011;11799;47.740;-3.390;2023-06-26T06:00:51;9.88;;;3.15;;
23260;SDS011;11799;47.740;-3.390;2023-06-26T06:03:16;10.90;;;2.63;;
23260;SDS011;11799;47.740;-3.390;2023-06-26T06:05:42;6.63;;;2.10;;
23260;SDS011;11799;47.740;-3.390;2023-06-26T06:08:07;9.00;;;2.13;;
23260;SDS011;11799;47.740;-3.390;2023-06-26T06:10:34;7.78;;;2.10;;
23260;SDS011;11799;47.740;-3.390;2023-06-26T06:12:59;6.07;;;2.03;;
23260;SDS011;11799;47.740;-3.390;2023-06-26T06:15:25;6.75;;;2.53;;
23260;SDS011;11799;47.740;-3.390;2023-06-26T06:17:50;8.38;;;2.30;;
23260;SDS011;11799;47.740;-3.390;2023-06-26T06:20:17;9.32;;;2.10;;
23260;SDS011;11799;47.740;-3.390;2023-06-26T06:22:44;7.88;;;2.20;;
23260;SDS011;11799;47.740;-3.390;2023-06-26T06:25:10;5.40;;;2.15;;
23260;SDS011;11799;47.740;-3.390;2023-06-26T06:27:36;6.60;;;1.88;;
23260;SDS011;11799;47.740;-3.390;2023-06-26T06:30:01;6.00;;;2.20;;
23260;SDS011;11799;47.740;-3.390;2023-06-26T06:32:28;9.70;;;2.38;;
23260;SDS011;11799;47.740;-3.390;2023-06-26T06:34:53;8.90;;;2.88;;
23260;SDS011;11799;47.740;-3.390;2023-06-26T06:37:19;6.07;;;1.88;;
23260;SDS011;11799;47.740;-3.390;2023-06-26T06:39:44;5.40;;;2.05;;
23260;SDS011;11799;47.740;-3.390;2023-06-26T06:42:10;6.80;;;1.70;;
23260;SDS011;11799;47.740;-3.390;2023-06-26T06:44:35;5.88;;;2.33;;
23260;SDS011;11799;47.740;-3.390;2023-06-26T06:47:01;9.32;;;2.42;;
23260;SDS011;11799;47.740;-3.390;2023-06-26T06:49:26;7.50;;;2.05;;
23260;SDS011;11799;47.740;-3.390;2023-06-26T06:51:52;9.10;;;1.98;;
23260;SDS011;11799;47.740;-3.390;2023-06-26T06:54:17;5.57;;;2.00;;
23260;SDS011;11799;47.740;-3.390;2023-06-26T06:56:43;13.23;;;2.00;;
23260;SDS011;11799;47.740;-3.390;2023-06-26T06:59:09;6.95;;;1.80;;
23260;SDS011;11799;47.740;-3.390;2023-06-26T07:01:34;8.15;;;1.92;;
23260;SDS011;11799;47.740;-3.390;2023-06-26T07:04:00;6.97;;;2.08;;
23260;SDS011;11799;47.740;-3.390;2023-06-26T07:06:25;8.40;;;2.35;;
23260;SDS011;11799;47.740;-3.390;2023-06-26T07:08:51;9.10;;;2.20;;
23260;SDS011;11799;47.740;-3.390;2023-06-26T07:11:16;6.03;;;1.45;;
23260;SDS011;11799;47.740;-3.390;2023-06-26T07:13:42;6.47;;;1.75;;
23260;SDS011;11799;47.740;-3.390;2023-06-26T07:16:07;4.65;;;1.80;;
23260;SDS011;11799;47.740;-3.390;2023-06-26T07:18:37;5.70;;;2.08;;
23260;SDS011;11799;47.740;-3.390;2023-06-26T07:21:03;6.07;;;1.70;;
23260;SDS011;11799;47.740;-3.390;2023-06-26T07:23:29;8.43;;;1.80;;
23260;SDS011;11799;47.740;-3.390;2023-06-26T07:25:55;5.22;;;1.40;;
23260;SDS011;11799;47.740;-3.390;2023-06-26T07:28:21;6.72;;;1.70;;
23260;SDS011;11799;47.740;-3.390;2023-06-26T07:30:46;6.07;;;1.60;;
23260;SDS011;11799;47.740;-3.390;2023-06-26T07:33:12;8.02;;;1.63;;
23260;SDS011;11799;47.740;-3.390;2023-06-26T07:35:37;3.38;;;1.33;;
23260;SDS011;11799;47.740;-3.390;2023-06-26T07:38:03;7.00;;;1.50;;
23260;SDS011;11799;47.740;-3.390;2023-06-26T07:40:29;12.27;;;2.38;;
23260;SDS011;11799;47.740;-3.390;2023-06-26T07:42:54;12.90;;;2.08;;
23260;SDS011;11799;47.740;-3.390;2023-06-26T07:45:20;5.68;;;1.75;;
23260;SDS011;11799;47.740;-3.390;2023-06-26T07:47:45;8.85;;;1.77;;
23260;SDS011;11799;47.740;-3.390;2023-06-26T07:50:11;6.18;;;1.38;;
23260;SDS011;11799;47.740;-3.390;2023-06-26T07:52:37;3.42;;;1.42;;
23260;SDS011;11799;47.740;-3.390;2023-06-26T07:55:02;5.35;;;1.40;;
23260;SDS011;11799;47.740;-3.390;2023-06-26T07:57:29;6.95;;;1.40;;
23260;SDS011;11799;47.740;-3.390;2023-06-26T07:59:55;7.38;;;1.75;;
23260;SDS011;11799;47.740;-3.390;2023-06-26T08:02:21;3.03;;;1.25;;
23260;SDS011;11799;47.740;-3.390;2023-06-26T08:04:46;6.13;;;1.52;;
23260;SDS011;11799;47.740;-3.390;2023-06-26T08:07:12;6.30;;;1.35;;
23260;SDS011;11799;47.740;-3.390;2023-06-26T08:09:39;7.13;;;1.75;;
23260;SDS011;11799;47.740;-3.390;2023-06-26T08:12:04;5.57;;;1.52;;
23260;SDS011;11799;47.740;-3.390;2023-06-26T08:14:30;5.28;;;1.42;;
23260;SDS011;11799;47.740;-3.390;2023-06-26T08:16:56;5.05;;;1.48;;
23260;SDS011;11799;47.740;-3.390;2023-06-26T08:19:22;5.40;;;1.83;;
23260;SDS011;11799;47.740;-3.390;2023-06-26T08:21:48;4.68;;;1.92;;
23260;SDS011;11799;47.740;-3.390;2023-06-26T08:24:13;6.28;;;1.48;;
23260;SDS011;11799;47.740;-3.390;2023-06-26T08:26:44;10.38;;;2.05;;
23260;SDS011;11799;47.740;-3.390;2023-06-26T08:29:11;16.10;;;2.70;;
23260;SDS011;11799;47.740;-3.390;2023-06-26T08:31:37;5.65;;;1.45;;
23260;SDS011;11799;47.740;-3.390;2023-06-26T08:34:03;3.80;;;1.42;;
23260;SDS011;11799;47.740;-3.390;2023-06-26T08:36:30;6.75;;;1.52;;
23260;SDS011;11799;47.740;-3.390;2023-06-26T08:38:56;6.15;;;1.40;;
23260;SDS011;11799;47.740;-3.390;2023-06-26T08:41:22;6.70;;;1.40;;
23260;SDS011;11799;47.740;-3.390;2023-06-26T08:43:47;8.90;;;1.88;;
23260;SDS011;11799;47.740;-3.390;2023-06-26T08:46:15;8.90;;;1.60;;
23260;SDS011;11799;47.740;-3.390;2023-06-26T08:48:41;5.72;;;1.65;;
23260;SDS011;11799;47.740;-3.390;2023-06-26T08:51:14;11.55;;;3.22;;
23260;SDS011;11799;47.740;-3.390;2023-06-26T08:56:24;5.28;;;1.45;;
23260;SDS011;11799;47.740;-3.390;2023-06-26T08:58:57;5.00;;;1.50;;
23260;SDS011;11799;47.740;-3.390;2023-06-26T09:01:22;4.50;;;1.50;;
23260;SDS011;11799;47.740;-3.390;2023-06-26T09:03:50;6.32;;;1.40;;
23260;SDS011;11799;47.740;-3.390;2023-06-26T09:06:17;5.88;;;1.60;;
23260;SDS011;11799;47.740;-3.390;2023-06-26T09:08:43;5.22;;;1.60;;
23260;SDS011;11799;47.740;-3.390;2023-06-26T09:11:09;2.88;;;1.23;;
23260;SDS011;11799;47.740;-3.390;2023-06-26T09:13:35;7.35;;;1.80;;
23260;SDS011;11799;47.740;-3.390;2023-06-26T09:16:04;5.38;;;1.50;;
23260;SDS011;11799;47.740;-3.390;2023-06-26T09:18:33;6.47;;;1.52;;
23260;SDS011;11799;47.740;-3.390;2023-06-26T09:20:59;4.18;;;1.23;;
23260;SDS011;11799;47.740;-3.390;2023-06-26T09:23:25;5.15;;;1.33;;
23260;SDS011;11799;47.740;-3.390;2023-06-26T09:25:51;4.75;;;1.30;;
23260;SDS011;11799;47.740;-3.390;2023-06-26T09:28:17;5.55;;;1.63;;
23260;SDS011;11799;47.740;-3.390;2023-06-26T09:30:44;7.60;;;1.70;;
23260;SDS011;11799;47.740;-3.390;2023-06-26T09:33:20;5.57;;;1.30;;
23260;SDS011;11799;47.740;-3.390;2023-06-26T09:35:46;4.75;;;1.20;;
23260;SDS011;11799;47.740;-3.390;2023-06-26T09:38:13;6.40;;;1.52;;
23260;SDS011;11799;47.740;-3.390;2023-06-26T09:40:40;5.18;;;1.58;;
23260;SDS011;11799;47.740;-3.390;2023-06-26T09:43:06;7.68;;;1.50;;
23260;SDS011;11799;47.740;-3.390;2023-06-26T09:45:33;4.25;;;1.40;;
23260;SDS011;11799;47.740;-3.390;2023-06-26T09:48:01;4.13;;;1.30;;
23260;SDS011;11799;47.740;-3.390;2023-06-26T09:50:28;5.70;;;1.42;;
23260;SDS011;11799;47.740;-3.390;2023-06-26T09:52:55;5.70;;;1.40;;
23260;SDS011;11799;47.740;-3.390;2023-06-26T09:55:21;5.07;;;1.38;;
23260;SDS011;11799;47.740;-3.390;2023-06-26T09:57:48;6.32;;;1.42;;
23260;SDS011;11799;47.740;-3.390;2023-06-26T10:00:15;5.45;;;1.40;;
23260;SDS011;11799;47.740;-3.390;2023-06-26T10:02:41;5.43;;;1.55;;
23260;SDS011;11799;47.740;-3.390;2023-06-26T10:05:07;4.13;;;1.50;;
23260;SDS011;11799;47.740;-3.390;2023-06-26T10:07:33;4.75;;;2.03;;
23260;SDS011;11799;47.740;-3.390;2023-06-26T10:10:00;6.30;;;1.60;;
23260;SDS011;11799;47.740;-3.390;2023-06-26T10:12:28;3.38;;;1.13;;
23260;SDS011;11799;47.740;-3.390;2023-06-26T10:14:55;3.78;;;1.50;;
23260;SDS011;11799;47.740;-3.390;2023-06-26T10:17:22;3.70;;;1.60;;
23260;SDS011;11799;47.740;-3.390;2023-06-26T10:19:51;4.60;;;1.50;;
23260;SDS011;11799;47.740;-3.390;2023-06-26T10:22:20;6.72;;;1.73;;
23260;SDS011;11799;47.740;-3.390;2023-06-26T10:24:50;5.15;;;1.65;;
23260;SDS011;11799;47.740;-3.390;2023-06-26T10:27:17;11.20;;;1.88;;
23260;SDS011;11799;47.740;-3.390;2023-06-26T10:29:46;6.47;;;1.90;;
23260;SDS011;11799;47.740;-3.390;2023-06-26T10:32:16;10.40;;;3.22;;
23260;SDS011;11799;47.740;-3.390;2023-06-26T10:34:43;6.63;;;2.20;;
23260;SDS011;11799;47.740;-3.390;2023-06-26T10:37:09;9.98;;;2.63;;
23260;SDS011;11799;47.740;-3.390;2023-06-26T10:39:47;4.70;;;2.15;;
23260;SDS011;11799;47.740;-3.390;2023-06-26T10:42:19;9.75;;;2.13;;
23260;SDS011;11799;47.740;-3.390;2023-06-26T10:44:59;6.20;;;1.48;;
23260;SDS011;11799;47.740;-3.390;2023-06-26T10:47:47;7.78;;;1.80;;
23260;SDS011;11799;47.740;-3.390;2023-06-26T10:50:17;7.35;;;1.73;;
23260;SDS011;11799;47.740;-3.390;2023-06-26T10:52:44;3.38;;;1.42;;
23260;SDS011;11799;47.740;-3.390;2023-06-26T10:55:10;8.07;;;1.70;;
23260;SDS011;11799;47.740;-3.390;2023-06-26T10:57:35;6.25;;;1.70;;
23260;SDS011;11799;47.740;-3.390;2023-06-26T11:00:09;8.73;;;1.45;;
23260;SDS011;11799;47.740;-3.390;2023-06-26T11:02:51;5.70;;;1.40;;
23260;SDS011;11799;47.740;-3.390;2023-06-26T11:05:27;5.63;;;1.50;;
23260;SDS011;11799;47.740;-3.390;2023-06-26T11:13:17;6.18;;;1.90;;
23260;SDS011;11799;47.740;-3.390;2023-06-26T11:15:44;5.53;;;1.45;;
23260;SDS011;11799;47.740;-3.390;2023-06-26T11:18:11;5.35;;;1.52;;
23260;SDS011;11799;47.740;-3.390;2023-06-26T11:20:38;8.30;;;1.95;;
23260;SDS011;11799;47.740;-3.390;2023-06-26T11:23:04;3.47;;;1.77;;
23260;SDS011;11799;47.740;-3.390;2023-06-26T11:25:36;4.28;;;1.63;;
23260;SDS011;11799;47.740;-3.390;2023-06-26T11:28:03;3.83;;;1.48;;
23260;SDS011;11799;47.740;-3.390;2023-06-26T11:30:29;9.40;;;1.88;;
23260;SDS011;11799;47.740;-3.390;2023-06-26T11:33:05;7.30;;;1.55;;
23260;SDS011;11799;47.740;-3.390;2023-06-26T11:35:32;7.60;;;1.75;;
23260;SDS011;11799;47.740;-3.390;2023-06-26T11:38:02;6.65;;;1.70;;
23260;SDS011;11799;47.740;-3.390;2023-06-26T11:40:32;7.15;;;1.90;;
23260;SDS011;11799;47.740;-3.390;2023-06-26T11:42:59;6.15;;;1.50;;
23260;SDS011;11799;47.740;-3.390;2023-06-26T11:45:29;6.25;;;2.03;;
23260;SDS011;11799;47.740;-3.390;2023-06-26T11:47:56;6.18;;;1.58;;
23260;SDS011;11799;47.740;-3.390;2023-06-26T11:50:22;3.90;;;1.20;;
23260;SDS011;11799;47.740;-3.390;2023-06-26T11:55:24;6.63;;;1.40;;
23260;SDS011;11799;47.740;-3.390;2023-06-26T11:57:53;10.18;;;1.88;;
23260;SDS011;11799;47.740;-3.390;2023-06-26T12:00:20;4.70;;;1.73;;
23260;SDS011;11799;47.740;-3.390;2023-06-26T12:02:46;4.70;;;1.30;;
23260;SDS011;11799;47.740;-3.390;2023-06-26T12:05:13;4.57;;;1.75;;
23260;SDS011;11799;47.740;-3.390;2023-06-26T12:07:40;5.03;;;1.40;;
23260;SDS011;11799;47.740;-3.390;2023-06-26T12:10:08;8.13;;;1.60;;
23260;SDS011;11799;47.740;-3.390;2023-06-26T12:12:35;6.72;;;1.80;;
23260;SDS011;11799;47.740;-3.390;2023-06-26T12:15:01;5.72;;;1.40;;
23260;SDS011;11799;47.740;-3.390;2023-06-26T12:17:28;4.75;;;1.55;;
23260;SDS011;11799;47.740;-3.390;2023-06-26T12:19:53;9.35;;;2.38;;
23260;SDS011;11799;47.740;-3.390;2023-06-26T12:22:19;3.72;;;1.45;;
23260;SDS011;11799;47.740;-3.390;2023-06-26T12:24:45;5.10;;;1.23;;
23260;SDS011;11799;47.740;-3.390;2023-06-26T12:27:13;6.82;;;1.80;;
23260;SDS011;11799;47.740;-3.390;2023-06-26T12:29:41;5.30;;;1.50;;
23260;SDS011;11799;47.740;-3.390;2023-06-26T12:32:12;3.65;;;1.40;;
23260;SDS011;11799;47.740;-3.390;2023-06-26T12:34:39;5.03;;;1.30;;
23260;SDS011;11799;47.740;-3.390;2023-06-26T12:37:08;4.20;;;1.40;;
23260;SDS011;11799;47.740;-3.390;2023-06-26T12:39:48;4.95;;;1.52;;
23260;SDS011;11799;47.740;-3.390;2023-06-26T12:42:24;3.30;;;1.25;;
23260;SDS011;11799;47.740;-3.390;2023-06-26T12:44:52;4.13;;;1.40;;
23260;SDS011;11799;47.740;-3.390;2023-06-26T12:47:23;5.65;;;1.38;;
23260;SDS011;11799;47.740;-3.390;2023-06-26T12:49:50;4.30;;;1.63;;
23260;SDS011;11799;47.740;-3.390;2023-06-26T12:52:17;8.85;;;1.40;;
23260;SDS011;11799;47.740;-3.390;2023-06-26T12:54:45;5.53;;;1.40;;
23260;SDS011;11799;47.740;-3.390;2023-06-26T12:57:12;3.80;;;1.50;;
23260;SDS011;11799;47.740;-3.390;2023-06-26T13:02:07;3.70;;;1.10;;
23260;SDS011;11799;47.740;-3.390;2023-06-26T13:04:34;6.07;;;1.50;;
23260;SDS011;11799;47.740;-3.390;2023-06-26T13:07:00;4.90;;;1.10;;
23260;SDS011;11799;47.740;-3.390;2023-06-26T13:09:26;5.65;;;1.15;;
23260;SDS011;11799;47.740;-3.390;2023-06-26T13:11:58;6.30;;;1.40;;
23260;SDS011;11799;47.740;-3.390;2023-06-26T13:14:24;2.95;;;1.15;;
23260;SDS011;11799;47.740;-3.390;2023-06-26T13:16:49;2.95;;;1.20;;
23260;SDS011;11799;47.740;-3.390;2023-06-26T13:19:15;7.22;;;1.40;;
23260;SDS011;11799;47.740;-3.390;2023-06-26T13:21:41;4.85;;;1.20;;
23260;SDS011;11799;47.740;-3.390;2023-06-26T13:24:07;4.35;;;1.40;;
23260;SDS011;11799;47.740;-3.390;2023-06-26T13:26:32;7.10;;;1.50;;
23260;SDS011;11799;47.740;-3.390;2023-06-26T13:28:58;3.83;;;1.35;;
23260;SDS011;11799;47.740;-3.390;2023-06-26T13:31:24;4.10;;;1.63;;
23260;SDS011;11799;47.740;-3.390;2023-06-26T13:33:50;3.85;;;1.60;;
23260;SDS011;11799;47.740;-3.390;2023-06-26T13:36:17;6.95;;;1.48;;
23260;SDS011;11799;47.740;-3.390;2023-06-26T13:38:43;4.50;;;1.50;;
23260;SDS011;11799;47.740;-3.390;2023-06-26T13:41:09;3.25;;;1.23;;
23260;SDS011;11799;47.740;-3.390;2023-06-26T13:43:35;4.65;;;1.40;;
23260;SDS011;11799;47.740;-3.390;2023-06-26T13:46:01;4.63;;;1.33;;
23260;SDS011;11799;47.740;-3.390;2023-06-26T13:48:28;5.28;;;1.40;;
23260;SDS011;11799;47.740;-3.390;2023-06-26T13:50:54;5.30;;;1.27;;
23260;SDS011;11799;47.740;-3.390;2023-06-26T13:53:20;3.55;;;1.02;;
23260;SDS011;11799;47.740;-3.390;2023-06-26T13:55:46;3.88;;;1.52;;
23260;SDS011;11799;47.740;-3.390;2023-06-26T13:58:11;5.38;;;1.60;;
23260;SDS011;11799;47.740;-3.390;2023-06-26T14:00:38;4.35;;;1.70;;
23260;SDS011;11799;47.740;-3.390;2023-06-26T14:03:04;6.25;;;1.50;;
23260;SDS011;11799;47.740;-3.390;2023-06-26T14:05:35;7.50;;;1.77;;
23260;SDS011;11799;47.740;-3.390;2023-06-26T14:08:05;7.22;;;1.42;;
23260;SDS011;11799;47.740;-3.390;2023-06-26T14:10:32;3.17;;;1.33;;
23260;SDS011;11799;47.740;-3.390;2023-06-26T14:12:58;6.70;;;1.50;;
23260;SDS011;11799;47.740;-3.390;2023-06-26T14:15:25;5.90;;;1.30;;
23260;SDS011;11799;47.740;-3.390;2023-06-26T14:17:51;5.25;;;1.48;;
23260;SDS011;11799;47.740;-3.390;2023-06-26T14:20:17;5.38;;;1.35;;
23260;SDS011;11799;47.740;-3.390;2023-06-26T14:22:43;2.47;;;1.23;;
23260;SDS011;11799;47.740;-3.390;2023-06-26T14:25:09;3.63;;;1.23;;
23260;SDS011;11799;47.740;-3.390;2023-06-26T14:27:37;3.70;;;1.20;;
23260;SDS011;11799;47.740;-3.390;2023-06-26T14:30:03;5.65;;;1.50;;
23260;SDS011;11799;47.740;-3.390;2023-06-26T14:32:29;5.45;;;1.75;;
23260;SDS011;11799;47.740;-3.390;2023-06-26T14:34:55;5.00;;;1.50;;
23260;SDS011;11799;47.740;-3.390;2023-06-26T14:37:21;24.80;;;2.58;;
23260;SDS011;11799;47.740;-3.390;2023-06-26T14:39:47;11.48;;;2.38;;
23260;SDS011;11799;47.740;-3.390;2023-06-26T14:42:12;11.02;;;2.15;;
23260;SDS011;11799;47.740;-3.390;2023-06-26T14:44:38;7.38;;;1.50;;
23260;SDS011;11799;47.740;-3.390;2023-06-26T14:47:03;5.22;;;1.60;;
23260;SDS011;11799;47.740;-3.390;2023-06-26T14:49:30;6.03;;;1.52;;
23260;SDS011;11799;47.740;-3.390;2023-06-26T14:51:55;7.05;;;1.45;;
23260;SDS011;11799;47.740;-3.390;2023-06-26T14:54:21;4.80;;;1.40;;